Terminal Aerodrome Forecast
Issued by NWS

Home | Current Version | Previous Version | Text Only | Print | Product List | Glossary On
Versions: 1 2 3 4 5 6 7 8 9 10 11 12 13 14 15 16
000
FTUS42 KMLB 170533
TAFLEE
TAF
KLEE 170533Z 1706/1806 VRB03KT P6SM SCT250
      TEMPO 1710/1713 4SM BR
     FM171600 16006KT P6SM FEW040 BKN250
     FM180000 VRB03KT P6SM BKN250=

USA.gov is the U.S. government's official web portal to all federal, state and local government web resources and services.